首页
METAR-TAF:

METAR-TAF

机场 :

傑克遜維爾, 北卡罗来纳州, 美国

纬度: 34-42-21N, 经度: 077-26-27W, 海拔: 7米

当前天气观测

该预报发布于35分钟前的10:56 UTC
静风
温度 3°C
湿度 100%
气压 1023 hPa
能見度: 16.1公里
天空无云

METAR: KNCA 171056Z AUTO 00000KT 10SM CLR 03/03 A3021 RMK AO2 SLP232 T00330033 $

时间: 06:31 (11:31 UTC)

预报

预报有效从16日的 21点(UTC)到 17日的 21点(UTC)
风速6节,风向多变
能见度10公里或以上
少量云层高于15000英尺
短暂存在
从 16日的 21点(UTC)到 17日的 01点(UTC)
风速12节,风向西转西北
能見度: 1909

TAF: KNCA 1621/1721 VRB06KT 9999 FEW150 QNH2999INS TEMPO 1621/1701 29012KT T05/1712Z T15/1719Z LAST 1621 NO AMD AFT 1909

超过4000个机场的气象观测和天气预报(METAR&TAF报告)。

可查询的气象台以黄色和红色小点在地图上表示。

将鼠标移到小点上方,可查看气象台名称。

然后点击查看天气观测和预报。

如需切换地图:点击带黑十字的绿色按钮放大地图;点击带横线的绿色按钮缩小地图;或者点击绿色箭头查看邻近地区的地图。


METAR-TAF: